Time;durP1;ratioP1;P1;durP2;ratioP2;P2;SDS_P1;SDS_P2;PMS_P1;PMS_P2;Temp;Humidity;BMP_temperature;BMP_pressure;BME280_temperature;BME280_humidity;BME280_pressure;Samples;Min_cycle;Max_cycle;Signal;HPM_P1;HPM_P2
2024/01/23 00:01:25;;;;;;;11.85;4.57;;;;;;;5.65;91.37;98458.59;4985811;28;20046;-72
2024/01/23 00:03:50;;;;;;;15.35;4.55;;;;;;;5.70;91.34;98471.31;4986517;28;20049;-71
2024/01/23 00:06:16;;;;;;;17.15;4.90;;;;;;;5.72;91.54;98471.97;4987259;28;20039;-72
2024/01/23 00:08:41;;;;;;;9.90;4.57;;;;;;;5.67;91.62;98466.41;4989941;28;20050;-72
2024/01/23 00:11:07;;;;;;;14.48;4.70;;;;;;;5.70;91.69;98471.31;4983679;28;20486;-71
2024/01/23 00:13:32;;;;;;;15.70;4.50;;;;;;;5.79;91.58;98480.81;4987507;28;20443;-72
2024/01/23 00:15:57;;;;;;;13.00;4.68;;;;;;;5.84;91.09;98457.78;4983112;28;20094;-72
2024/01/23 00:18:23;;;;;;;12.13;4.50;;;;;;;5.82;91.81;98464.34;4986498;28;20022;-71
2024/01/23 00:20:48;;;;;;;7.75;3.85;;;;;;;5.85;91.30;98463.97;4986292;28;20092;-72
2024/01/23 00:23:14;;;;;;;11.10;4.40;;;;;;;5.77;90.88;98456.09;4985101;28;20046;-73
2024/01/23 00:25:39;;;;;;;14.95;4.10;;;;;;;5.87;90.80;98472.59;4988272;28;20121;-72
2024/01/23 00:28:06;;;;;;;10.80;4.35;;;;;;;5.90;90.21;98482.88;4983279;28;20026;-73
2024/01/23 00:30:31;;;;;;;14.25;4.35;;;;;;;5.95;90.18;98491.09;4988705;28;20038;-71
2024/01/23 00:32:58;;;;;;;14.98;4.32;;;;;;;5.97;90.40;98483.69;4970435;28;20029;-73
2024/01/23 00:35:23;;;;;;;10.52;4.28;;;;;;;5.96;90.79;98500.75;4983939;28;20039;-71
2024/01/23 00:37:48;;;;;;;11.13;4.15;;;;;;;6.00;89.68;98493.94;4985499;28;20064;-73
2024/01/23 00:40:14;;;;;;;12.40;3.90;;;;;;;6.03;89.68;98498.88;4984546;28;20506;-72
2024/01/23 00:42:39;;;;;;;11.38;3.95;;;;;;;5.94;89.75;98484.91;5003944;28;20034;-71
2024/01/23 00:45:05;;;;;;;13.70;3.72;;;;;;;6.04;89.79;98506.72;4983994;28;20126;-73
2024/01/23 00:47:33;;;;;;;7.72;3.33;;;;;;;6.10;88.76;98497.03;4970958;28;20030;-72
2024/01/23 00:49:58;;;;;;;11.43;3.58;;;;;;;6.05;88.74;98488.78;4988489;28;20042;-72
2024/01/23 00:52:24;;;;;;;10.85;3.28;;;;;;;6.09;88.75;98493.50;5001691;28;20053;-72
2024/01/23 00:54:49;;;;;;;9.27;3.20;;;;;;;6.13;88.53;98483.25;4988031;28;20061;-72
2024/01/23 00:57:15;;;;;;;6.75;3.00;;;;;;;6.11;87.71;98480.75;4999700;28;20052;-72
2024/01/23 00:59:40;;;;;;;9.65;3.53;;;;;;;6.16;87.66;98499.66;4986772;28;20058;-73
2024/01/23 01:02:05;;;;;;;9.63;3.00;;;;;;;6.19;87.43;98487.75;4988669;28;20030;-71
2024/01/23 01:04:31;;;;;;;8.45;3.30;;;;;;;6.11;87.11;98485.31;5002694;23;20056;-69
2024/01/23 01:06:56;;;;;;;12.05;3.60;;;;;;;6.18;86.08;98491.47;4991184;28;20034;-71
2024/01/23 01:09:22;;;;;;;7.13;3.80;;;;;;;6.21;86.50;98501.72;4989332;28;20042;-71
2024/01/23 01:11:47;;;;;;;7.72;2.90;;;;;;;6.25;85.61;98492.28;4992326;28;20030;-71
2024/01/23 01:14:13;;;;;;;6.45;2.63;;;;;;;6.26;84.90;98510.78;4972955;28;20118;-69
2024/01/23 01:16:38;;;;;;;8.30;3.10;;;;;;;6.29;84.93;98498.84;4972019;28;20050;-70
2024/01/23 01:19:03;;;;;;;12.00;3.45;;;;;;;6.34;85.50;98507.06;4946923;28;20043;-71
2024/01/23 01:21:29;;;;;;;13.00;3.60;;;;;;;6.25;86.34;98502.97;4972348;28;20023;-70
2024/01/23 01:23:54;;;;;;;7.85;3.33;;;;;;;6.27;86.32;98508.94;4962434;28;20109;-71
2024/01/23 01:26:20;;;;;;;7.85;2.83;;;;;;;6.17;86.96;98495.16;4968665;28;20585;-68
2024/01/23 01:28:45;;;;;;;7.57;3.70;;;;;;;6.27;86.97;98514.28;4970858;28;20407;-71
2024/01/23 01:31:10;;;;;;;8.52;3.20;;;;;;;6.32;86.88;98519.00;4963969;28;20062;-71
2024/01/23 01:33:36;;;;;;;6.72;3.15;;;;;;;6.23;86.88;98521.06;4966985;28;20042;-70
2024/01/23 01:36:02;;;;;;;8.80;3.30;;;;;;;6.25;86.75;98524.38;4969073;28;20153;-71
2024/01/23 01:38:27;;;;;;;9.32;3.05;;;;;;;6.20;87.08;98532.19;4966916;28;20406;-70
2024/01/23 01:40:54;;;;;;;10.13;3.20;;;;;;;6.30;86.22;98537.94;4966465;28;20023;-71
2024/01/23 01:43:26;;;;;;;9.35;3.05;;;;;;;6.25;87.41;98532.38;4967583;28;20034;-71
2024/01/23 01:46:07;;;;;;;10.68;3.67;;;;;;;6.25;86.49;98524.38;4967620;28;20046;-70
2024/01/23 01:48:32;;;;;;;11.50;3.25;;;;;;;6.31;86.14;98526.19;4966442;28;20043;-71
2024/01/23 01:50:58;;;;;;;9.48;3.38;;;;;;;6.28;86.31;98539.97;4971383;28;20030;-71
2024/01/23 01:53:23;;;;;;;11.48;3.50;;;;;;;6.39;85.05;98523.31;4962933;28;20038;-70
2024/01/23 01:55:49;;;;;;;10.13;3.67;;;;;;;6.40;85.04;98519.56;4972312;28;20031;-73
2024/01/23 01:58:16;;;;;;;7.72;3.33;;;;;;;6.42;85.96;98530.88;4960531;28;20495;-72
2024/01/23 02:00:41;;;;;;;10.32;3.05;;;;;;;6.50;85.58;98524.50;4949075;28;20029;-72
2024/01/23 02:03:07;;;;;;;7.53;2.97;;;;;;;6.45;85.41;98524.28;4967314;28;20043;-71
2024/01/23 02:05:33;;;;;;;10.23;3.92;;;;;;;6.43;85.30;98524.53;4971195;28;20035;-71
2024/01/23 02:07:58;;;;;;;7.65;3.15;;;;;;;6.44;85.40;98522.66;4964658;28;20077;-72
2024/01/23 02:10:25;;;;;;;8.35;3.22;;;;;;;6.41;84.97;98515.88;4964334;28;20131;-73
2024/01/23 02:12:50;;;;;;;13.63;3.65;;;;;;;6.41;86.46;98523.91;4963941;28;20122;-72
2024/01/23 02:15:15;;;;;;;10.23;4.05;;;;;;;6.33;86.18;98513.44;4969712;28;20030;-73
2024/01/23 02:17:41;;;;;;;10.45;3.97;;;;;;;6.30;86.12;98521.06;4964462;28;20479;-72
2024/01/23 02:20:07;;;;;;;9.52;3.08;;;;;;;6.35;85.92;98524.72;4969850;28;20050;-72
2024/01/23 02:22:32;;;;;;;11.05;3.85;;;;;;;6.33;86.04;98529.47;4967133;28;20038;-73
2024/01/23 02:24:57;;;;;;;11.25;3.45;;;;;;;6.46;84.85;98525.94;4969557;28;20401;-72
2024/01/23 02:27:23;;;;;;;9.70;3.33;;;;;;;6.45;84.42;98541.19;4969903;28;20041;-72
2024/01/23 02:29:48;;;;;;;10.75;3.53;;;;;;;6.47;84.12;98527.56;4979752;28;20062;-74
2024/01/23 02:32:13;;;;;;;9.93;3.17;;;;;;;6.48;84.02;98546.13;4966230;28;20068;-73
2024/01/23 02:34:39;;;;;;;9.65;3.22;;;;;;;6.43;84.22;98532.53;4972039;28;20186;-73
2024/01/23 02:37:04;;;;;;;6.88;2.72;;;;;;;6.41;84.64;98529.25;4972672;28;20038;-70
2024/01/23 02:39:30;;;;;;;7.90;3.03;;;;;;;6.38;85.43;98529.66;4969165;28;20102;-71
2024/01/23 02:41:55;;;;;;;8.52;3.08;;;;;;;6.33;84.90;98526.78;4971588;28;20046;-71
2024/01/23 02:44:20;;;;;;;13.57;3.20;;;;;;;6.34;85.86;98528.44;4968173;28;20037;-70
2024/01/23 02:46:46;;;;;;;11.43;3.78;;;;;;;6.26;85.21;98526.81;4969875;28;20074;-70
2024/01/23 02:49:11;;;;;;;8.60;3.10;;;;;;;6.22;86.24;98540.81;4973546;28;20122;-69
2024/01/23 02:51:37;;;;;;;11.88;3.40;;;;;;;6.23;85.29;98527.22;4968908;28;20041;-69
2024/01/23 02:54:02;;;;;;;9.35;3.42;;;;;;;6.13;86.08;98531.38;4971217;28;20394;-69
2024/01/23 02:56:27;;;;;;;8.88;3.50;;;;;;;6.16;86.19;98531.75;4966908;28;20090;-70
2024/01/23 02:58:53;;;;;;;15.30;3.80;;;;;;;6.05;85.82;98555.63;4971168;28;20516;-69
2024/01/23 03:01:18;;;;;;;10.52;3.20;;;;;;;6.16;86.05;98541.66;4969280;28;20097;-71
2024/01/23 03:03:43;;;;;;;9.65;3.55;;;;;;;6.11;86.02;98554.81;4971492;28;20033;-72
2024/01/23 03:06:09;;;;;;;9.45;3.60;;;;;;;6.12;84.97;98551.09;4967018;28;20039;-71
2024/01/23 03:08:34;;;;;;;11.27;3.38;;;;;;;6.09;85.15;98535.50;4970872;28;20027;-72
2024/01/23 03:11:00;;;;;;;11.80;3.95;;;;;;;6.20;84.77;98564.28;4963476;28;20454;-72
2024/01/23 03:13:26;;;;;;;8.82;3.38;;;;;;;6.17;84.78;98559.31;4969277;28;20057;-71
2024/01/23 03:15:52;;;;;;;7.68;3.15;;;;;;;6.14;84.60;98559.72;4973158;28;20049;-72
2024/01/23 03:18:18;;;;;;;9.63;3.30;;;;;;;6.19;83.84;98573.31;4968411;28;20030;-71
2024/01/23 03:20:43;;;;;;;10.32;3.47;;;;;;;6.23;84.00;98563.88;4970365;28;20031;-71
2024/01/23 03:23:10;;;;;;;11.45;3.88;;;;;;;6.26;83.64;98588.31;4963511;28;20725;-71
2024/01/23 03:25:35;;;;;;;9.75;3.30;;;;;;;6.25;83.84;98588.53;4968443;28;20038;-69
2024/01/23 03:28:01;;;;;;;11.30;3.75;;;;;;;6.21;83.97;98581.94;4970675;28;20031;-70
2024/01/23 03:30:31;;;;;;;10.07;4.15;;;;;;;6.23;83.82;98575.34;4974170;28;20070;-71
2024/01/23 03:32:56;;;;;;;7.53;3.00;;;;;;;6.20;83.73;98580.31;4968577;28;20166;-68
2024/01/23 03:35:22;;;;;;;8.90;3.53;;;;;;;6.12;83.40;98583.19;4972351;28;20074;-71
2024/01/23 03:37:47;;;;;;;15.02;3.70;;;;;;;6.12;83.45;98593.88;4976908;28;20018;-71
2024/01/23 03:40:13;;;;;;;9.93;3.78;;;;;;;6.09;83.52;98575.59;4971008;28;20491;-70
2024/01/23 03:42:38;;;;;;;10.85;3.47;;;;;;;6.11;83.04;98597.59;4974772;28;20106;-71
2024/01/23 03:45:04;;;;;;;11.25;3.10;;;;;;;6.08;83.28;98603.34;4967690;28;20054;-70
2024/01/23 03:47:30;;;;;;;11.07;3.22;;;;;;;6.13;83.00;98592.88;4969683;28;20438;-70
2024/01/23 03:49:55;;;;;;;13.50;3.10;;;;;;;6.05;83.21;98603.75;4972554;28;20047;-69
2024/01/23 03:52:22;;;;;;;8.15;3.33;;;;;;;6.06;82.44;98602.72;4975715;28;20046;-73
2024/01/23 03:54:48;;;;;;;13.95;3.10;;;;;;;6.10;82.63;98611.97;4973161;28;20058;-69
2024/01/23 03:57:13;;;;;;;8.32;2.95;;;;;;;6.09;82.22;98613.03;4965751;28;20023;-68
2024/01/23 03:59:42;;;;;;;11.65;3.28;;;;;;;6.07;82.81;98607.88;4971569;28;20791;-68
2024/01/23 04:02:08;;;;;;;11.70;3.22;;;;;;;6.07;82.48;98617.72;4971698;28;20498;-70
2024/01/23 04:04:34;;;;;;;13.65;3.10;;;;;;;6.02;81.76;98621.03;4969741;28;20035;-72
2024/01/23 04:06:59;;;;;;;11.00;3.70;;;;;;;5.91;81.53;98596.75;4953972;28;20474;-72
2024/01/23 04:09:25;;;;;;;10.25;3.00;;;;;;;6.05;82.22;98627.81;4966582;28;20036;-69
2024/01/23 04:11:50;;;;;;;10.00;3.45;;;;;;;6.03;81.92;98648.59;4966325;28;20038;-70
2024/01/23 04:14:16;;;;;;;7.53;2.72;;;;;;;6.09;81.29;98647.78;4969751;28;20522;-68
2024/01/23 04:16:41;;;;;;;10.48;3.25;;;;;;;6.07;81.82;98641.78;4971145;28;20497;-71
2024/01/23 04:19:07;;;;;;;12.25;3.97;;;;;;;6.04;81.33;98655.59;4965048;28;20034;-67
2024/01/23 04:21:33;;;;;;;10.38;2.92;;;;;;;6.04;81.38;98660.94;4969711;28;20490;-69
2024/01/23 04:23:58;;;;;;;11.38;3.13;;;;;;;6.08;80.90;98662.16;4963541;28;20035;-68
2024/01/23 04:26:24;;;;;;;11.70;3.45;;;;;;;6.00;81.84;98659.69;4968672;28;20520;-69
2024/01/23 04:28:49;;;;;;;10.77;3.05;;;;;;;5.97;81.04;98671.63;4976291;28;20061;-69
2024/01/23 04:31:15;;;;;;;9.90;3.17;;;;;;;5.89;81.47;98662.97;4968186;28;20107;-69
2024/01/23 04:33:40;;;;;;;9.23;2.80;;;;;;;6.03;80.59;98680.66;4969391;28;20050;-70
2024/01/23 04:36:06;;;;;;;10.77;2.80;;;;;;;6.01;80.93;98678.22;4971590;28;20030;-71
2024/01/23 04:38:31;;;;;;;12.10;3.42;;;;;;;6.04;80.64;98682.31;4951154;28;20035;-69
2024/01/23 04:40:57;;;;;;;14.45;3.75;;;;;;;5.97;81.03;98676.16;4967776;28;20165;-70
2024/01/23 04:43:22;;;;;;;12.95;3.47;;;;;;;5.92;81.04;98673.25;4965977;28;20046;-70
2024/01/23 04:45:47;;;;;;;11.45;3.40;;;;;;;5.86;81.17;98674.88;4965255;28;20030;-70
2024/01/23 04:48:13;;;;;;;10.10;3.58;;;;;;;5.81;81.34;98681.84;4966309;28;20046;-70
2024/01/23 04:50:38;;;;;;;9.40;2.95;;;;;;;5.77;81.02;98693.94;4969961;28;20030;-70
2024/01/23 04:53:04;;;;;;;10.30;2.80;;;;;;;5.68;80.67;98673.78;4965305;28;20035;-71
2024/01/23 04:55:29;;;;;;;13.52;3.33;;;;;;;5.85;80.47;98683.09;4968596;28;20101;-70
2024/01/23 04:57:54;;;;;;;11.68;2.90;;;;;;;5.85;80.67;98685.78;4963128;28;20057;-70
2024/01/23 05:00:20;;;;;;;9.80;3.08;;;;;;;5.92;79.80;98689.28;4972133;28;20037;-71
2024/01/23 05:02:45;;;;;;;11.25;3.03;;;;;;;5.93;80.30;98712.31;4952423;28;20042;-71
2024/01/23 05:05:11;;;;;;;9.35;3.17;;;;;;;5.88;79.75;98714.78;4962727;28;20038;-71
2024/01/23 05:07:36;;;;;;;8.40;3.10;;;;;;;5.91;79.67;98717.03;4969164;28;20042;-70
2024/01/23 05:10:04;;;;;;;10.23;2.63;;;;;;;5.85;79.20;98704.47;4969696;28;20053;-71
2024/01/23 05:12:29;;;;;;;8.25;2.95;;;;;;;6.01;78.97;98720.16;4966580;28;20031;-70
2024/01/23 05:14:55;;;;;;;10.10;3.35;;;;;;;5.93;79.61;98737.19;4966305;28;20459;-71
2024/01/23 05:17:20;;;;;;;8.60;2.80;;;;;;;5.93;78.77;98739.03;4949147;28;20100;-71
2024/01/23 05:19:45;;;;;;;13.07;3.75;;;;;;;5.94;79.50;98730.00;4965141;28;20047;-72
2024/01/23 05:22:11;;;;;;;9.27;3.50;;;;;;;5.91;79.01;98733.91;4964913;28;20046;-71
2024/01/23 05:24:36;;;;;;;10.85;3.28;;;;;;;6.03;78.98;98760.88;4967852;28;20090;-71
2024/01/23 05:27:02;;;;;;;10.07;3.05;;;;;;;6.06;79.67;98773.84;4969784;28;20039;-69
2024/01/23 05:29:27;;;;;;;8.32;3.13;;;;;;;6.05;79.53;98780.19;4973328;28;20371;-70
2024/01/23 05:31:52;;;;;;;10.00;3.00;;;;;;;5.85;79.53;98779.31;4961911;28;20034;-70
2024/01/23 05:34:18;;;;;;;10.02;3.15;;;;;;;6.05;78.75;98812.28;4963965;28;20042;-70
2024/01/23 05:36:43;;;;;;;13.35;3.97;;;;;;;5.95;79.72;98817.19;4970421;28;20046;-72
2024/01/23 05:39:09;;;;;;;10.27;3.35;;;;;;;5.95;79.16;98817.19;4961648;28;20031;-71
2024/01/23 05:41:34;;;;;;;11.70;3.40;;;;;;;5.88;80.14;98819.03;4967727;28;20050;-70
2024/01/23 05:43:59;;;;;;;10.15;3.22;;;;;;;5.94;79.89;98828.91;4969286;28;20026;-72
2024/01/23 05:46:25;;;;;;;9.90;3.38;;;;;;;5.88;80.10;98837.72;4971947;28;20043;-72
2024/01/23 05:48:50;;;;;;;9.60;2.92;;;;;;;5.86;80.74;98845.13;4967522;28;20022;-72
2024/01/23 05:51:16;;;;;;;9.70;3.22;;;;;;;5.92;81.20;98871.06;4968625;28;20069;-71
2024/01/23 05:53:41;;;;;;;10.60;3.42;;;;;;;5.89;81.69;98845.53;4965049;28;20081;-72
2024/01/23 05:56:07;;;;;;;10.18;3.17;;;;;;;5.66;82.75;98870.88;4966803;28;20039;-71
2024/01/23 05:58:32;;;;;;;9.48;3.10;;;;;;;5.65;84.00;98883.41;4964203;28;20029;-71
2024/01/23 06:00:57;;;;;;;11.98;2.95;;;;;;;5.55;84.56;98883.75;4970919;28;20038;-71
2024/01/23 06:03:23;;;;;;;9.10;2.75;;;;;;;5.55;84.29;98889.09;4970345;28;20027;-71
2024/01/23 06:05:48;;;;;;;13.63;3.53;;;;;;;5.38;85.31;98885.06;4971324;28;20030;-71
2024/01/23 06:08:14;;;;;;;12.52;4.88;;;;;;;5.48;84.15;98885.53;4971110;28;20027;-71
2024/01/23 06:10:39;;;;;;;14.75;4.28;;;;;;;5.39;85.35;98897.41;4963488;28;20062;-71
2024/01/23 06:13:04;;;;;;;14.63;4.43;;;;;;;5.33;85.34;98898.19;4964146;28;20034;-71
2024/01/23 06:15:31;;;;;;;13.13;5.00;;;;;;;5.34;85.14;98899.84;4971793;28;20062;-71
2024/01/23 06:17:56;;;;;;;16.55;4.07;;;;;;;5.29;84.48;98912.94;4965258;28;20027;-71
2024/01/23 06:20:21;;;;;;;11.18;5.70;;;;;;;5.26;84.39;98921.34;4970535;28;20132;-71
2024/01/23 06:22:47;;;;;;;11.63;4.13;;;;;;;5.20;84.47;98916.78;4962180;28;20066;-71
2024/01/23 06:25:16;;;;;;;17.30;4.30;;;;;;;5.11;84.63;98917.91;4967957;28;20042;-71
2024/01/23 06:27:42;;;;;;;14.70;4.10;;;;;;;5.06;84.85;98928.34;4965037;28;20031;-71
2024/01/23 06:30:11;;;;;;;13.32;4.05;;;;;;;5.06;84.95;98928.34;4975224;28;20038;-70
2024/01/23 06:32:37;;;;;;;13.68;4.15;;;;;;;5.06;84.50;98943.53;4968992;28;20027;-70
2024/01/23 06:35:02;;;;;;;11.48;4.07;;;;;;;5.05;84.79;98932.03;4950027;28;20453;-71
2024/01/23 06:37:28;;;;;;;12.70;4.22;;;;;;;4.96;85.22;98935.84;4971341;28;20031;-71
2024/01/23 06:39:53;;;;;;;15.23;3.88;;;;;;;4.89;85.87;98942.97;4971770;28;20054;-70
2024/01/23 06:42:19;;;;;;;15.07;3.95;;;;;;;4.90;85.87;98944.63;4966852;28;20102;-70
2024/01/23 06:44:44;;;;;;;8.73;3.38;;;;;;;4.96;85.72;98959.03;4964644;28;20046;-70
2024/01/23 06:47:10;;;;;;;14.63;3.45;;;;;;;4.95;85.83;98974.22;4966761;28;20026;-70
2024/01/23 06:49:35;;;;;;;11.43;3.63;;;;;;;4.99;85.09;98975.50;4971577;28;20066;-72
2024/01/23 06:52:01;;;;;;;10.75;3.35;;;;;;;4.84;84.93;98961.38;4965815;28;20093;-70
2024/01/23 06:54:26;;;;;;;12.32;3.42;;;;;;;4.94;85.19;98979.75;4970438;28;20130;-72
2024/01/23 06:56:51;;;;;;;13.07;3.90;;;;;;;4.97;84.55;98988.19;4965818;28;20027;-71
2024/01/23 06:59:17;;;;;;;14.52;3.75;;;;;;;4.94;84.34;98999.25;4969600;28;20114;-72
2024/01/23 07:01:42;;;;;;;13.75;3.65;;;;;;;4.95;84.37;99005.44;4969833;28;20031;-72
2024/01/23 07:04:07;;;;;;;10.48;3.45;;;;;;;4.93;83.96;99008.28;4988119;23;20034;-75
2024/01/23 07:06:33;;;;;;;9.55;3.22;;;;;;;4.86;84.00;98983.34;5006485;28;20097;-74
2024/01/23 07:08:58;;;;;;;10.05;4.13;;;;;;;4.97;83.39;99006.88;5013242;28;20034;-75
2024/01/23 07:11:24;;;;;;;11.23;3.22;;;;;;;4.95;83.33;99006.25;5008704;28;20018;-74
2024/01/23 07:13:52;;;;;;;11.27;4.07;;;;;;;4.97;83.24;99030.91;4988362;28;20489;-73
2024/01/23 07:16:18;;;;;;;19.13;7.00;;;;;;;4.94;82.77;99031.28;4993377;28;20022;-74
2024/01/23 07:18:43;;;;;;;11.20;4.82;;;;;;;4.88;83.54;99043.53;4985857;28;20049;-74
2024/01/23 07:21:09;;;;;;;14.07;4.60;;;;;;;4.83;83.51;99042.47;4983722;28;20023;-74
2024/01/23 07:23:35;;;;;;;8.73;4.22;;;;;;;4.79;83.28;99051.84;4991459;28;20525;-73
2024/01/23 07:26:01;;;;;;;9.75;3.40;;;;;;;4.77;83.52;99056.53;4983542;28;20031;-75
2024/01/23 07:28:26;;;;;;;12.55;3.38;;;;;;;4.78;83.18;99063.53;4991178;28;20042;-74
2024/01/23 07:30:52;;;;;;;10.40;3.83;;;;;;;4.83;82.83;99071.81;4992237;28;20019;-74
2024/01/23 07:33:17;;;;;;;11.35;5.28;;;;;;;4.78;82.94;99058.19;4989666;28;20112;-74
2024/01/23 07:35:43;;;;;;;13.75;6.15;;;;;;;4.82;83.10;99078.16;4988860;28;20084;-75
2024/01/23 07:38:10;;;;;;;15.45;7.40;;;;;;;4.78;82.88;99090.22;4990000;28;20488;-74
2024/01/23 07:40:37;;;;;;;13.57;7.72;;;;;;;4.82;82.64;99091.50;4985483;28;20033;-74
2024/01/23 07:43:03;;;;;;;13.63;4.78;;;;;;;4.73;82.72;99089.94;4969615;28;20038;-74
2024/01/23 07:45:28;;;;;;;12.07;4.05;;;;;;;4.76;82.70;99095.72;4983549;28;20026;-74
2024/01/23 07:47:53;;;;;;;14.52;4.95;;;;;;;4.77;82.77;99105.38;4968136;28;20043;-73
2024/01/23 07:50:19;;;;;;;10.77;3.50;;;;;;;4.77;82.66;99099.22;4989681;28;20085;-74
2024/01/23 07:52:44;;;;;;;11.57;4.78;;;;;;;4.72;83.25;99102.44;4987542;28;20042;-74
2024/01/23 07:55:09;;;;;;;9.73;4.30;;;;;;;4.78;83.07;99111.56;4986562;28;20023;-74
2024/01/23 07:57:35;;;;;;;10.52;4.38;;;;;;;4.76;83.48;99113.59;4986650;28;20042;-74
2024/01/23 08:00:00;;;;;;;15.45;4.68;;;;;;;4.70;83.63;99119.66;4991006;28;20026;-73
2024/01/23 08:02:26;;;;;;;13.45;5.35;;;;;;;4.76;83.18;99127.75;4992284;28;20042;-74
2024/01/23 08:04:51;;;;;;;12.15;4.50;;;;;;;4.78;83.36;99116.91;4983740;28;20026;-74
2024/01/23 08:07:17;;;;;;;15.77;4.85;;;;;;;4.75;83.81;99111.91;4989735;28;20132;-74
2024/01/23 08:09:42;;;;;;;11.75;3.60;;;;;;;4.74;83.38;99121.75;4983419;28;20103;-74
2024/01/23 08:12:08;;;;;;;8.50;3.85;;;;;;;4.76;83.56;99124.25;4987155;28;20049;-74
2024/01/23 08:14:33;;;;;;;11.00;4.03;;;;;;;4.81;83.33;99127.19;4985939;28;20092;-74
2024/01/23 08:16:59;;;;;;;11.10;3.53;;;;;;;4.92;82.99;99145.41;4989723;28;20382;-74
2024/01/23 08:19:24;;;;;;;11.88;3.70;;;;;;;4.90;83.26;99147.44;4983908;28;20033;-73
2024/01/23 08:21:50;;;;;;;13.38;3.63;;;;;;;4.93;83.01;99148.88;4987666;28;20093;-74
2024/01/23 08:24:15;;;;;;;15.20;4.03;;;;;;;4.90;83.27;99148.25;4989403;28;20122;-74
2024/01/23 08:26:41;;;;;;;11.52;3.67;;;;;;;4.93;83.02;99152.41;4966277;28;20039;-74
2024/01/23 08:29:07;;;;;;;15.45;3.92;;;;;;;4.97;83.33;99153.66;4994784;28;20445;-74
2024/01/23 08:31:32;;;;;;;10.52;3.47;;;;;;;5.11;83.20;99160.84;4985957;28;20031;-74
2024/01/23 08:33:58;;;;;;;14.38;4.50;;;;;;;5.22;82.84;99152.38;4986310;28;20502;-74
2024/01/23 08:36:23;;;;;;;11.27;3.45;;;;;;;5.31;82.64;99153.91;4992673;28;20390;-74
2024/01/23 08:38:49;;;;;;;8.93;3.05;;;;;;;5.43;82.36;99172.97;4985524;28;20050;-73
2024/01/23 08:41:14;;;;;;;8.27;2.67;;;;;;;5.51;82.17;99162.97;4988854;28;20034;-74
2024/01/23 08:43:40;;;;;;;12.30;3.50;;;;;;;5.55;82.51;99169.59;4984446;28;20632;-74
2024/01/23 08:46:05;;;;;;;16.60;3.08;;;;;;;5.55;81.68;99168.78;4987870;28;20046;-74
2024/01/23 08:48:30;;;;;;;11.05;3.20;;;;;;;5.64;82.20;99178.34;4987091;28;20145;-74
2024/01/23 08:50:56;;;;;;;11.02;3.20;;;;;;;5.71;82.28;99167.72;4988187;28;20042;-74
2024/01/23 08:53:22;;;;;;;11.35;3.05;;;;;;;5.77;81.90;99173.13;4967175;28;20753;-74
2024/01/23 08:55:47;;;;;;;15.40;3.88;;;;;;;5.78;81.57;99168.63;4986950;28;20045;-74
2024/01/23 08:58:19;;;;;;;11.55;3.63;;;;;;;5.85;81.44;99181.06;4982708;28;20023;-74
2024/01/23 09:00:45;;;;;;;13.82;3.83;;;;;;;5.83;81.33;99187.59;4991531;28;20038;-72
2024/01/23 09:03:10;;;;;;;9.20;3.15;;;;;;;5.80;82.21;99194.13;4987867;28;20030;-72
2024/01/23 09:05:36;;;;;;;10.68;3.60;;;;;;;5.90;81.89;99202.72;4985337;28;20038;-73
2024/01/23 09:08:01;;;;;;;11.70;3.75;;;;;;;6.03;81.91;99200.16;4969737;28;20029;-73
2024/01/23 09:10:28;;;;;;;13.38;4.25;;;;;;;6.13;81.10;99199.84;4984080;28;20037;-72
2024/01/23 09:12:53;;;;;;;13.05;3.28;;;;;;;6.21;80.19;99218.44;4985574;28;20022;-72
2024/01/23 09:15:18;;;;;;;14.80;3.80;;;;;;;6.31;80.51;99202.06;4990321;28;20038;-73
2024/01/23 09:17:44;;;;;;;12.57;3.30;;;;;;;6.44;79.40;99211.03;4984445;28;20026;-73
2024/01/23 09:20:10;;;;;;;14.13;3.97;;;;;;;6.54;79.90;99203.50;4987055;28;20030;-73
2024/01/23 09:22:36;;;;;;;13.32;3.45;;;;;;;6.59;78.79;99209.09;4983800;28;20445;-73
2024/01/23 09:25:03;;;;;;;13.48;3.47;;;;;;;6.60;78.69;99229.50;4968866;28;20560;-72
2024/01/23 09:27:29;;;;;;;13.48;3.35;;;;;;;6.64;77.84;99232.59;4984411;28;20477;-72
2024/01/23 09:29:54;;;;;;;13.95;3.85;;;;;;;6.64;78.02;99233.44;4994918;28;20050;-72
2024/01/23 09:32:19;;;;;;;17.83;3.88;;;;;;;6.67;77.20;99230.38;4972599;28;20030;-74
2024/01/23 09:34:47;;;;;;;13.88;3.60;;;;;;;6.64;76.68;99238.78;4991302;28;20030;-73
2024/01/23 09:37:13;;;;;;;17.13;4.85;;;;;;;6.63;76.67;99233.59;4991370;28;20032;-73
2024/01/23 09:39:38;;;;;;;20.08;4.63;;;;;;;6.63;76.45;99255.84;4991226;28;20409;-73
2024/01/23 09:42:04;;;;;;;16.13;3.92;;;;;;;6.61;75.16;99263.25;4991081;28;20030;-74
2024/01/23 09:44:30;;;;;;;43.30;22.50;;;;;;;6.69;74.67;99265.81;4991437;28;20038;-73
2024/01/23 09:46:56;;;;;;;38.50;18.50;;;;;;;6.67;75.45;99262.50;4986864;28;20621;-73
2024/01/23 09:49:22;;;;;;;43.85;22.60;;;;;;;6.59;76.41;99267.97;4966293;28;20056;-77
2024/01/23 09:51:49;;;;;;;24.65;11.63;;;;;;;6.58;76.12;99271.66;4974782;28;20470;-73
2024/01/23 09:54:14;;;;;;;24.80;9.98;;;;;;;6.60;75.73;99261.63;4990183;28;20041;-73
2024/01/23 09:56:40;;;;;;;23.95;7.78;;;;;;;6.65;76.04;99274.41;4989444;28;20030;-73
2024/01/23 09:59:06;;;;;;;16.52;4.55;;;;;;;6.67;75.60;99278.56;4989916;28;20058;-73
2024/01/23 10:01:33;;;;;;;15.15;4.50;;;;;;;6.64;75.91;99289.63;4990798;28;20045;-73
2024/01/23 10:04:00;;;;;;;17.92;3.78;;;;;;;6.67;75.29;99262.50;4990654;28;20034;-73
2024/01/23 10:06:26;;;;;;;18.05;4.43;;;;;;;6.66;75.66;99282.25;4974770;28;20033;-73
2024/01/23 10:08:51;;;;;;;16.35;4.63;;;;;;;6.72;76.19;99286.81;4986074;28;20077;-73
2024/01/23 10:11:16;;;;;;;13.45;4.53;;;;;;;6.73;76.36;99288.47;4982436;28;20056;-74
2024/01/23 10:13:42;;;;;;;17.73;4.15;;;;;;;6.77;75.82;99268.31;4990905;28;20046;-73
2024/01/23 10:16:09;;;;;;;14.25;3.53;;;;;;;6.84;75.83;99285.28;4990826;28;20026;-74
2024/01/23 10:18:35;;;;;;;18.63;4.38;;;;;;;6.77;75.01;99273.69;4990860;28;20118;-73
2024/01/23 10:21:00;;;;;;;12.15;3.20;;;;;;;6.72;74.29;99270.75;4990676;28;20101;-73
2024/01/23 10:23:27;;;;;;;15.93;4.40;;;;;;;6.85;74.60;99281.59;4990733;28;20493;-73
2024/01/23 10:25:54;;;;;;;19.63;4.85;;;;;;;6.86;74.97;99277.88;4990735;28;20027;-74
2024/01/23 10:28:22;;;;;;;13.70;4.03;;;;;;;6.82;74.46;99262.38;4990771;28;20117;-74
2024/01/23 10:30:47;;;;;;;18.55;4.10;;;;;;;7.02;73.74;99282.13;4995024;28;20070;-74
2024/01/23 10:33:13;;;;;;;14.98;3.97;;;;;;;6.96;73.48;99291.75;4990729;28;20450;-73
2024/01/23 10:35:40;;;;;;;14.52;4.18;;;;;;;6.91;73.01;99270.09;4990634;28;20027;-74
2024/01/23 10:38:06;;;;;;;17.23;3.67;;;;;;;7.00;73.17;99278.81;4990620;28;20133;-73
2024/01/23 10:40:32;;;;;;;13.15;3.50;;;;;;;6.96;72.34;99256.94;4991493;28;20093;-74
2024/01/23 10:42:58;;;;;;;13.75;4.47;;;;;;;7.11;72.25;99285.47;4994271;28;20034;-73
2024/01/23 10:45:24;;;;;;;12.82;3.80;;;;;;;7.13;73.01;99283.44;4984923;28;20088;-73
2024/01/23 10:47:51;;;;;;;16.98;4.15;;;;;;;7.03;72.49;99266.88;4993860;28;20539;-73
2024/01/23 10:50:17;;;;;;;16.73;4.45;;;;;;;7.20;71.63;99261.03;4995248;28;20320;-73
2024/01/23 10:52:46;;;;;;;14.98;4.03;;;;;;;7.20;71.51;99265.53;4994339;28;20113;-73
2024/01/23 10:55:12;;;;;;;11.40;3.20;;;;;;;6.98;70.98;99270.13;4991813;28;20474;-73
2024/01/23 10:57:39;;;;;;;14.80;3.60;;;;;;;7.13;70.34;99283.44;4994261;28;20045;-73
2024/01/23 11:00:05;;;;;;;15.32;3.50;;;;;;;7.16;69.96;99272.31;4990817;28;20030;-73
2024/01/23 11:02:51;;;;;;;18.67;4.07;;;;;;;7.06;69.71;99269.16;4994190;28;20038;-74
2024/01/23 11:05:20;;;;;;;12.90;3.50;;;;;;;6.95;70.14;99263.31;4976285;28;20035;-73
2024/01/23 11:07:58;;;;;;;12.27;3.30;;;;;;;7.00;69.46;99283.34;4977769;28;20034;-74
2024/01/23 11:10:24;;;;;;;12.38;3.85;;;;;;;6.87;69.56;99281.38;4993586;28;20074;-74
2024/01/23 11:13:06;;;;;;;13.55;3.72;;;;;;;6.96;69.26;99278.38;4994958;28;20030;-74
2024/01/23 11:15:32;;;;;;;14.13;3.92;;;;;;;6.90;70.06;99276.47;4987341;28;20034;-74
2024/01/23 11:18:26;;;;;;;15.65;3.78;;;;;;;7.04;69.35;99284.59;4983473;28;20027;-73
2024/01/23 11:21:03;;;;;;;12.70;3.70;;;;;;;7.06;70.07;99282.56;4985210;28;20050;-73
2024/01/23 11:23:30;;;;;;;20.33;4.47;;;;;;;7.05;70.10;99296.97;4988573;28;20117;-74
2024/01/23 11:26:12;;;;;;;15.07;3.70;;;;;;;7.03;70.52;99299.00;4993817;28;20080;-74
2024/01/23 11:28:38;;;;;;;20.17;4.10;;;;;;;7.07;69.85;99305.66;4989578;28;20089;-73
2024/01/23 11:31:08;;;;;;;11.23;3.65;;;;;;;7.01;70.98;99306.41;4997990;28;20029;-74